Terminal Aerodrome Forecast
Issued by NWS

Home | Current Version | Previous Version | Text Only | Print | Product List | Glossary On
Versions: 1 2 3 4 5 6 7 8 9 10 11 12 13 14 15 16 17 18 19 20 21 22
574
FTPA31 PHFO 120532
TAFHOG
TAF
PHOG 120532Z 1206/1306 19006KT P6SM FEW030 SCT045
     FM122000 20012G18KT P6SM FEW030 SCT045
     FM130500 36009KT 5SM -SHRA BKN025 OVC040
      AMD LTD TO VIS AND WIND 1209/1216=

USA.gov is the U.S. government's official web portal to all federal, state and local government web resources and services.